sensor_id;sensor_type;location;lat;lon;timestamp;P1;durP1;ratioP1;P2;durP2;ratioP2
5690;SDS011;2870;42.680;23.364;2023-04-24T00:01:25;10.30;;;7.00;;
5690;SDS011;2870;42.680;23.364;2023-04-24T00:03:52;10.80;;;7.00;;
5690;SDS011;2870;42.680;23.364;2023-04-24T00:06:19;9.00;;;6.90;;
5690;SDS011;2870;42.680;23.364;2023-04-24T00:08:46;10.73;;;6.60;;
5690;SDS011;2870;42.680;23.364;2023-04-24T00:11:13;13.43;;;7.17;;
5690;SDS011;2870;42.680;23.364;2023-04-24T00:13:39;13.40;;;7.80;;
5690;SDS011;2870;42.680;23.364;2023-04-24T00:16:06;10.30;;;7.10;;
5690;SDS011;2870;42.680;23.364;2023-04-24T00:18:34;10.30;;;7.07;;
5690;SDS011;2870;42.680;23.364;2023-04-24T00:21:01;10.53;;;7.37;;
5690;SDS011;2870;42.680;23.364;2023-04-24T00:23:29;8.97;;;6.47;;
5690;SDS011;2870;42.680;23.364;2023-04-24T00:25:56;10.97;;;7.13;;
5690;SDS011;2870;42.680;23.364;2023-04-24T00:28:23;10.80;;;7.20;;
5690;SDS011;2870;42.680;23.364;2023-04-24T00:30:50;14.20;;;7.63;;
5690;SDS011;2870;42.680;23.364;2023-04-24T00:33:17;12.00;;;7.50;;
5690;SDS011;2870;42.680;23.364;2023-04-24T00:35:45;11.73;;;7.63;;
5690;SDS011;2870;42.680;23.364;2023-04-24T00:38:12;12.80;;;7.30;;
5690;SDS011;2870;42.680;23.364;2023-04-24T00:40:38;16.30;;;7.43;;
5690;SDS011;2870;42.680;23.364;2023-04-24T00:43:05;11.70;;;7.70;;
5690;SDS011;2870;42.680;23.364;2023-04-24T00:45:32;12.03;;;8.40;;
5690;SDS011;2870;42.680;23.364;2023-04-24T00:47:59;12.23;;;8.07;;
5690;SDS011;2870;42.680;23.364;2023-04-24T00:50:27;16.20;;;7.87;;
5690;SDS011;2870;42.680;23.364;2023-04-24T00:52:57;11.10;;;7.80;;
5690;SDS011;2870;42.680;23.364;2023-04-24T00:55:24;14.03;;;7.50;;
5690;SDS011;2870;42.680;23.364;2023-04-24T00:57:51;11.63;;;7.00;;
5690;SDS011;2870;42.680;23.364;2023-04-24T01:00:19;13.60;;;7.10;;
5690;SDS011;2870;42.680;23.364;2023-04-24T01:02:46;14.43;;;8.70;;
5690;SDS011;2870;42.680;23.364;2023-04-24T01:05:13;11.70;;;7.53;;
5690;SDS011;2870;42.680;23.364;2023-04-24T01:07:43;12.50;;;7.50;;
5690;SDS011;2870;42.680;23.364;2023-04-24T01:10:13;13.70;;;7.70;;
5690;SDS011;2870;42.680;23.364;2023-04-24T01:12:42;18.80;;;7.43;;
5690;SDS011;2870;42.680;23.364;2023-04-24T01:15:09;12.50;;;7.20;;
5690;SDS011;2870;42.680;23.364;2023-04-24T01:17:36;19.13;;;8.30;;
5690;SDS011;2870;42.680;23.364;2023-04-24T01:20:04;10.63;;;6.57;;
5690;SDS011;2870;42.680;23.364;2023-04-24T01:22:34;16.47;;;7.20;;
5690;SDS011;2870;42.680;23.364;2023-04-24T01:25:01;9.00;;;6.87;;
5690;SDS011;2870;42.680;23.364;2023-04-24T01:27:29;9.50;;;7.23;;
5690;SDS011;2870;42.680;23.364;2023-04-24T01:29:56;12.50;;;8.30;;
5690;SDS011;2870;42.680;23.364;2023-04-24T01:32:23;22.23;;;8.17;;
5690;SDS011;2870;42.680;23.364;2023-04-24T01:34:50;12.40;;;7.37;;
5690;SDS011;2870;42.680;23.364;2023-04-24T01:37:17;12.30;;;8.23;;
5690;SDS011;2870;42.680;23.364;2023-04-24T01:39:45;15.23;;;7.60;;
5690;SDS011;2870;42.680;23.364;2023-04-24T01:42:12;11.37;;;7.93;;
5690;SDS011;2870;42.680;23.364;2023-04-24T01:44:39;12.60;;;7.40;;
5690;SDS011;2870;42.680;23.364;2023-04-24T01:47:07;11.03;;;8.07;;
5690;SDS011;2870;42.680;23.364;2023-04-24T01:49:34;11.70;;;8.47;;
5690;SDS011;2870;42.680;23.364;2023-04-24T01:52:00;11.70;;;8.10;;
5690;SDS011;2870;42.680;23.364;2023-04-24T01:54:27;17.17;;;7.43;;
5690;SDS011;2870;42.680;23.364;2023-04-24T01:56:56;16.60;;;7.97;;
5690;SDS011;2870;42.680;23.364;2023-04-24T01:59:23;9.90;;;7.53;;
5690;SDS011;2870;42.680;23.364;2023-04-24T02:04:59;13.03;;;8.23;;
5690;SDS011;2870;42.680;23.364;2023-04-24T02:07:26;11.60;;;8.30;;
5690;SDS011;2870;42.680;23.364;2023-04-24T02:09:53;12.63;;;9.30;;
5690;SDS011;2870;42.680;23.364;2023-04-24T02:12:21;15.67;;;8.10;;
5690;SDS011;2870;42.680;23.364;2023-04-24T02:14:48;14.40;;;9.03;;
5690;SDS011;2870;42.680;23.364;2023-04-24T02:17:15;14.60;;;8.90;;
5690;SDS011;2870;42.680;23.364;2023-04-24T02:19:42;16.83;;;8.77;;
5690;SDS011;2870;42.680;23.364;2023-04-24T02:22:09;13.10;;;9.47;;
5690;SDS011;2870;42.680;23.364;2023-04-24T02:24:36;17.80;;;8.77;;
5690;SDS011;2870;42.680;23.364;2023-04-24T02:27:03;13.90;;;8.67;;
5690;SDS011;2870;42.680;23.364;2023-04-24T02:29:32;12.67;;;9.73;;
5690;SDS011;2870;42.680;23.364;2023-04-24T02:31:59;11.03;;;9.20;;
5690;SDS011;2870;42.680;23.364;2023-04-24T02:34:25;12.60;;;8.93;;
5690;SDS011;2870;42.680;23.364;2023-04-24T02:36:52;13.97;;;9.87;;
5690;SDS011;2870;42.680;23.364;2023-04-24T02:39:20;13.30;;;9.03;;
5690;SDS011;2870;42.680;23.364;2023-04-24T02:41:46;16.23;;;9.50;;
5690;SDS011;2870;42.680;23.364;2023-04-24T02:44:13;14.80;;;9.53;;
5690;SDS011;2870;42.680;23.364;2023-04-24T02:46:41;13.07;;;10.00;;
5690;SDS011;2870;42.680;23.364;2023-04-24T02:49:08;12.43;;;9.40;;
5690;SDS011;2870;42.680;23.364;2023-04-24T02:51:37;16.23;;;9.80;;
5690;SDS011;2870;42.680;23.364;2023-04-24T02:54:06;13.43;;;9.73;;
5690;SDS011;2870;42.680;23.364;2023-04-24T02:56:34;12.30;;;9.03;;
5690;SDS011;2870;42.680;23.364;2023-04-24T02:59:00;14.70;;;9.30;;
5690;SDS011;2870;42.680;23.364;2023-04-24T03:01:28;14.47;;;9.90;;
5690;SDS011;2870;42.680;23.364;2023-04-24T03:03:56;16.17;;;9.10;;
5690;SDS011;2870;42.680;23.364;2023-04-24T03:06:23;12.23;;;9.23;;
5690;SDS011;2870;42.680;23.364;2023-04-24T03:08:50;14.93;;;9.13;;
5690;SDS011;2870;42.680;23.364;2023-04-24T03:11:16;16.57;;;9.87;;
5690;SDS011;2870;42.680;23.364;2023-04-24T03:13:43;20.37;;;10.57;;
5690;SDS011;2870;42.680;23.364;2023-04-24T03:16:10;17.30;;;9.03;;
5690;SDS011;2870;42.680;23.364;2023-04-24T03:18:37;15.70;;;10.10;;
5690;SDS011;2870;42.680;23.364;2023-04-24T03:21:05;16.20;;;10.00;;
5690;SDS011;2870;42.680;23.364;2023-04-24T03:23:32;14.50;;;9.67;;
5690;SDS011;2870;42.680;23.364;2023-04-24T03:25:59;21.57;;;9.97;;
5690;SDS011;2870;42.680;23.364;2023-04-24T03:28:26;14.03;;;9.50;;
5690;SDS011;2870;42.680;23.364;2023-04-24T03:30:52;13.33;;;8.90;;
5690;SDS011;2870;42.680;23.364;2023-04-24T03:33:19;17.03;;;9.50;;
5690;SDS011;2870;42.680;23.364;2023-04-24T03:35:46;15.03;;;10.83;;
5690;SDS011;2870;42.680;23.364;2023-04-24T03:38:14;15.57;;;9.40;;
5690;SDS011;2870;42.680;23.364;2023-04-24T03:40:41;12.80;;;9.57;;
5690;SDS011;2870;42.680;23.364;2023-04-24T03:43:08;15.60;;;9.27;;
5690;SDS011;2870;42.680;23.364;2023-04-24T03:45:34;15.33;;;9.30;;
5690;SDS011;2870;42.680;23.364;2023-04-24T03:48:01;16.90;;;9.67;;
5690;SDS011;2870;42.680;23.364;2023-04-24T03:50:28;15.00;;;10.33;;
5690;SDS011;2870;42.680;23.364;2023-04-24T03:52:55;15.13;;;10.43;;
5690;SDS011;2870;42.680;23.364;2023-04-24T03:55:23;19.03;;;10.90;;
5690;SDS011;2870;42.680;23.364;2023-04-24T03:57:50;15.70;;;9.90;;
5690;SDS011;2870;42.680;23.364;2023-04-24T04:00:16;20.43;;;8.40;;
5690;SDS011;2870;42.680;23.364;2023-04-24T04:02:44;16.53;;;9.23;;
5690;SDS011;2870;42.680;23.364;2023-04-24T04:05:10;12.10;;;9.40;;
5690;SDS011;2870;42.680;23.364;2023-04-24T04:07:37;18.07;;;8.83;;
5690;SDS011;2870;42.680;23.364;2023-04-24T04:10:04;13.80;;;9.10;;
5690;SDS011;2870;42.680;23.364;2023-04-24T04:12:34;15.13;;;8.13;;
5690;SDS011;2870;42.680;23.364;2023-04-24T04:15:00;11.07;;;8.27;;
5690;SDS011;2870;42.680;23.364;2023-04-24T04:17:27;13.00;;;8.63;;
5690;SDS011;2870;42.680;23.364;2023-04-24T04:19:54;12.80;;;8.17;;
5690;SDS011;2870;42.680;23.364;2023-04-24T04:22:21;12.73;;;7.97;;
5690;SDS011;2870;42.680;23.364;2023-04-24T04:24:48;13.70;;;8.03;;
5690;SDS011;2870;42.680;23.364;2023-04-24T04:27:16;11.90;;;7.40;;
5690;SDS011;2870;42.680;23.364;2023-04-24T04:29:45;21.60;;;8.40;;
5690;SDS011;2870;42.680;23.364;2023-04-24T04:32:11;12.33;;;7.40;;
5690;SDS011;2870;42.680;23.364;2023-04-24T04:34:38;15.17;;;8.17;;
5690;SDS011;2870;42.680;23.364;2023-04-24T04:37:05;15.00;;;7.73;;
5690;SDS011;2870;42.680;23.364;2023-04-24T04:39:32;12.43;;;7.67;;
5690;SDS011;2870;42.680;23.364;2023-04-24T04:41:58;22.03;;;8.50;;
5690;SDS011;2870;42.680;23.364;2023-04-24T04:44:25;13.63;;;8.43;;
5690;SDS011;2870;42.680;23.364;2023-04-24T04:46:55;13.50;;;9.00;;
5690;SDS011;2870;42.680;23.364;2023-04-24T04:49:22;11.67;;;8.33;;
5690;SDS011;2870;42.680;23.364;2023-04-24T04:51:49;17.20;;;7.73;;
5690;SDS011;2870;42.680;23.364;2023-04-24T04:54:17;12.57;;;7.40;;
5690;SDS011;2870;42.680;23.364;2023-04-24T04:56:43;10.40;;;8.00;;
5690;SDS011;2870;42.680;23.364;2023-04-24T04:59:10;15.90;;;8.63;;
5690;SDS011;2870;42.680;23.364;2023-04-24T05:01:37;13.23;;;8.10;;
5690;SDS011;2870;42.680;23.364;2023-04-24T05:04:05;20.43;;;8.00;;
5690;SDS011;2870;42.680;23.364;2023-04-24T05:06:32;11.23;;;7.53;;
5690;SDS011;2870;42.680;23.364;2023-04-24T05:08:59;19.80;;;8.20;;
5690;SDS011;2870;42.680;23.364;2023-04-24T05:11:26;13.50;;;8.40;;
5690;SDS011;2870;42.680;23.364;2023-04-24T05:13:53;17.43;;;9.50;;
5690;SDS011;2870;42.680;23.364;2023-04-24T05:16:20;13.60;;;8.63;;
5690;SDS011;2870;42.680;23.364;2023-04-24T05:18:46;13.70;;;9.00;;
5690;SDS011;2870;42.680;23.364;2023-04-24T05:21:14;12.93;;;8.73;;
5690;SDS011;2870;42.680;23.364;2023-04-24T05:23:41;13.20;;;8.77;;
5690;SDS011;2870;42.680;23.364;2023-04-24T05:26:08;14.40;;;8.60;;
5690;SDS011;2870;42.680;23.364;2023-04-24T05:28:35;13.57;;;9.03;;
5690;SDS011;2870;42.680;23.364;2023-04-24T05:31:02;25.37;;;9.30;;
5690;SDS011;2870;42.680;23.364;2023-04-24T05:33:29;18.83;;;9.97;;
5690;SDS011;2870;42.680;23.364;2023-04-24T05:35:55;15.70;;;9.90;;
5690;SDS011;2870;42.680;23.364;2023-04-24T05:38:24;13.03;;;9.63;;
5690;SDS011;2870;42.680;23.364;2023-04-24T05:40:51;16.80;;;10.57;;
5690;SDS011;2870;42.680;23.364;2023-04-24T05:43:17;18.10;;;12.20;;
5690;SDS011;2870;42.680;23.364;2023-04-24T05:45:44;16.47;;;10.93;;
5690;SDS011;2870;42.680;23.364;2023-04-24T05:48:11;29.60;;;11.20;;
5690;SDS011;2870;42.680;23.364;2023-04-24T05:50:38;17.73;;;11.50;;
5690;SDS011;2870;42.680;23.364;2023-04-24T05:53:05;20.53;;;11.90;;
5690;SDS011;2870;42.680;23.364;2023-04-24T05:55:34;17.70;;;11.60;;
5690;SDS011;2870;42.680;23.364;2023-04-24T05:58:01;21.50;;;11.57;;
5690;SDS011;2870;42.680;23.364;2023-04-24T06:00:28;17.30;;;10.93;;
5690;SDS011;2870;42.680;23.364;2023-04-24T06:02:54;18.10;;;11.07;;
5690;SDS011;2870;42.680;23.364;2023-04-24T06:05:21;15.70;;;10.70;;
5690;SDS011;2870;42.680;23.364;2023-04-24T06:07:48;15.83;;;10.70;;
5690;SDS011;2870;42.680;23.364;2023-04-24T06:10:15;19.30;;;12.10;;
5690;SDS011;2870;42.680;23.364;2023-04-24T06:12:43;15.87;;;10.90;;
5690;SDS011;2870;42.680;23.364;2023-04-24T06:15:10;24.03;;;12.10;;
5690;SDS011;2870;42.680;23.364;2023-04-24T06:17:37;15.93;;;11.50;;
5690;SDS011;2870;42.680;23.364;2023-04-24T06:20:05;20.23;;;12.27;;
5690;SDS011;2870;42.680;23.364;2023-04-24T06:22:33;24.40;;;12.93;;
5690;SDS011;2870;42.680;23.364;2023-04-24T06:25:00;20.43;;;12.07;;
5690;SDS011;2870;42.680;23.364;2023-04-24T06:27:27;18.80;;;13.30;;
5690;SDS011;2870;42.680;23.364;2023-04-24T06:29:55;23.10;;;13.07;;
5690;SDS011;2870;42.680;23.364;2023-04-24T06:32:22;21.50;;;12.53;;
5690;SDS011;2870;42.680;23.364;2023-04-24T06:34:50;23.13;;;12.60;;
5690;SDS011;2870;42.680;23.364;2023-04-24T06:37:18;18.87;;;11.77;;
5690;SDS011;2870;42.680;23.364;2023-04-24T06:39:44;17.27;;;12.00;;
5690;SDS011;2870;42.680;23.364;2023-04-24T06:42:11;24.87;;;12.10;;
5690;SDS011;2870;42.680;23.364;2023-04-24T06:44:38;22.33;;;12.83;;
5690;SDS011;2870;42.680;23.364;2023-04-24T06:47:08;22.00;;;12.43;;
5690;SDS011;2870;42.680;23.364;2023-04-24T06:49:36;20.03;;;11.90;;
5690;SDS011;2870;42.680;23.364;2023-04-24T06:52:03;18.27;;;12.07;;
5690;SDS011;2870;42.680;23.364;2023-04-24T06:54:30;17.27;;;11.23;;
5690;SDS011;2870;42.680;23.364;2023-04-24T06:56:57;30.27;;;11.47;;
5690;SDS011;2870;42.680;23.364;2023-04-24T06:59:25;21.10;;;12.40;;
5690;SDS011;2870;42.680;23.364;2023-04-24T07:01:52;24.33;;;11.20;;
5690;SDS011;2870;42.680;23.364;2023-04-24T07:04:20;21.17;;;10.93;;
5690;SDS011;2870;42.680;23.364;2023-04-24T07:06:47;21.70;;;10.33;;
5690;SDS011;2870;42.680;23.364;2023-04-24T07:09:16;16.10;;;11.73;;
5690;SDS011;2870;42.680;23.364;2023-04-24T07:11:43;23.63;;;12.07;;
5690;SDS011;2870;42.680;23.364;2023-04-24T07:14:10;15.77;;;11.30;;
5690;SDS011;2870;42.680;23.364;2023-04-24T07:16:37;17.10;;;12.30;;
5690;SDS011;2870;42.680;23.364;2023-04-24T07:19:04;14.63;;;10.77;;
5690;SDS011;2870;42.680;23.364;2023-04-24T07:21:32;16.20;;;11.67;;
5690;SDS011;2870;42.680;23.364;2023-04-24T07:23:59;23.97;;;11.00;;
5690;SDS011;2870;42.680;23.364;2023-04-24T07:26:26;17.70;;;11.77;;
5690;SDS011;2870;42.680;23.364;2023-04-24T07:28:53;21.17;;;12.23;;
5690;SDS011;2870;42.680;23.364;2023-04-24T07:31:20;19.80;;;11.40;;
5690;SDS011;2870;42.680;23.364;2023-04-24T07:33:47;24.20;;;11.67;;
5690;SDS011;2870;42.680;23.364;2023-04-24T07:36:14;21.40;;;11.83;;
5690;SDS011;2870;42.680;23.364;2023-04-24T07:38:45;24.77;;;13.57;;
5690;SDS011;2870;42.680;23.364;2023-04-24T07:41:12;16.53;;;10.70;;
5690;SDS011;2870;42.680;23.364;2023-04-24T07:43:39;26.47;;;12.50;;
5690;SDS011;2870;42.680;23.364;2023-04-24T07:46:06;33.73;;;12.50;;
5690;SDS011;2870;42.680;23.364;2023-04-24T07:48:32;18.73;;;10.60;;
5690;SDS011;2870;42.680;23.364;2023-04-24T07:50:59;29.80;;;11.50;;
5690;SDS011;2870;42.680;23.364;2023-04-24T07:53:26;17.80;;;10.60;;
5690;SDS011;2870;42.680;23.364;2023-04-24T07:55:56;37.33;;;11.40;;
5690;SDS011;2870;42.680;23.364;2023-04-24T07:58:23;12.07;;;8.60;;
5690;SDS011;2870;42.680;23.364;2023-04-24T08:00:50;8.87;;;6.43;;
5690;SDS011;2870;42.680;23.364;2023-04-24T08:03:16;11.67;;;7.60;;
5690;SDS011;2870;42.680;23.364;2023-04-24T08:05:44;22.43;;;10.17;;
5690;SDS011;2870;42.680;23.364;2023-04-24T08:08:12;23.20;;;10.70;;
5690;SDS011;2870;42.680;23.364;2023-04-24T08:10:39;18.30;;;9.73;;
5690;SDS011;2870;42.680;23.364;2023-04-24T08:13:07;18.50;;;8.87;;
5690;SDS011;2870;42.680;23.364;2023-04-24T08:15:36;14.20;;;9.03;;
5690;SDS011;2870;42.680;23.364;2023-04-24T08:18:03;13.40;;;8.33;;
5690;SDS011;2870;42.680;23.364;2023-04-24T08:20:30;12.30;;;8.70;;
5690;SDS011;2870;42.680;23.364;2023-04-24T08:22:56;13.80;;;8.37;;
5690;SDS011;2870;42.680;23.364;2023-04-24T08:25:23;16.80;;;8.10;;
5690;SDS011;2870;42.680;23.364;2023-04-24T08:27:50;11.73;;;8.00;;
5690;SDS011;2870;42.680;23.364;2023-04-24T08:30:19;12.40;;;8.53;;
5690;SDS011;2870;42.680;23.364;2023-04-24T08:32:45;15.10;;;8.93;;
5690;SDS011;2870;42.680;23.364;2023-04-24T08:35:12;14.70;;;9.30;;
5690;SDS011;2870;42.680;23.364;2023-04-24T08:37:39;16.07;;;7.00;;
5690;SDS011;2870;42.680;23.364;2023-04-24T08:40:09;11.40;;;7.53;;
5690;SDS011;2870;42.680;23.364;2023-04-24T08:42:39;18.40;;;7.73;;
5690;SDS011;2870;42.680;23.364;2023-04-24T08:45:08;13.40;;;7.80;;
5690;SDS011;2870;42.680;23.364;2023-04-24T08:47:38;13.80;;;7.63;;
5690;SDS011;2870;42.680;23.364;2023-04-24T08:50:06;16.90;;;6.93;;
5690;SDS011;2870;42.680;23.364;2023-04-24T08:52:34;13.97;;;6.93;;
5690;SDS011;2870;42.680;23.364;2023-04-24T08:55:02;15.00;;;7.23;;
5690;SDS011;2870;42.680;23.364;2023-04-24T08:57:29;11.97;;;7.50;;
5690;SDS011;2870;42.680;23.364;2023-04-24T08:59:58;14.13;;;7.47;;
5690;SDS011;2870;42.680;23.364;2023-04-24T09:02:27;14.40;;;7.03;;
5690;SDS011;2870;42.680;23.364;2023-04-24T09:04:56;13.33;;;7.20;;
5690;SDS011;2870;42.680;23.364;2023-04-24T09:07:24;13.97;;;6.73;;
5690;SDS011;2870;42.680;23.364;2023-04-24T09:09:51;20.70;;;7.47;;
5690;SDS011;2870;42.680;23.364;2023-04-24T09:12:18;11.73;;;7.63;;
5690;SDS011;2870;42.680;23.364;2023-04-24T09:14:45;14.00;;;7.60;;
5690;SDS011;2870;42.680;23.364;2023-04-24T09:17:12;17.10;;;7.57;;
5690;SDS011;2870;42.680;23.364;2023-04-24T09:19:39;10.60;;;7.80;;
5690;SDS011;2870;42.680;23.364;2023-04-24T09:22:08;17.30;;;7.70;;
5690;SDS011;2870;42.680;23.364;2023-04-24T09:24:36;12.27;;;7.03;;
5690;SDS011;2870;42.680;23.364;2023-04-24T09:27:03;10.67;;;7.73;;
5690;SDS011;2870;42.680;23.364;2023-04-24T09:29:30;11.13;;;7.37;;
5690;SDS011;2870;42.680;23.364;2023-04-24T09:31:58;12.43;;;7.87;;
5690;SDS011;2870;42.680;23.364;2023-04-24T09:34:25;10.23;;;7.53;;
5690;SDS011;2870;42.680;23.364;2023-04-24T09:36:53;15.27;;;8.00;;
5690;SDS011;2870;42.680;23.364;2023-04-24T09:39:22;12.90;;;7.77;;
5690;SDS011;2870;42.680;23.364;2023-04-24T09:41:49;17.73;;;7.23;;
5690;SDS011;2870;42.680;23.364;2023-04-24T09:44:17;21.43;;;15.30;;
5690;SDS011;2870;42.680;23.364;2023-04-24T09:46:49;13.50;;;7.63;;
5690;SDS011;2870;42.680;23.364;2023-04-24T09:49:21;14.70;;;6.97;;
5690;SDS011;2870;42.680;23.364;2023-04-24T09:51:49;10.43;;;7.00;;
5690;SDS011;2870;42.680;23.364;2023-04-24T09:54:16;14.00;;;8.20;;
5690;SDS011;2870;42.680;23.364;2023-04-24T09:56:45;11.77;;;7.83;;
5690;SDS011;2870;42.680;23.364;2023-04-24T09:59:12;15.20;;;6.77;;
5690;SDS011;2870;42.680;23.364;2023-04-24T10:01:40;15.00;;;7.07;;
5690;SDS011;2870;42.680;23.364;2023-04-24T10:04:16;16.63;;;7.10;;
5690;SDS011;2870;42.680;23.364;2023-04-24T10:06:44;11.13;;;7.37;;
5690;SDS011;2870;42.680;23.364;2023-04-24T10:09:11;10.40;;;6.23;;
5690;SDS011;2870;42.680;23.364;2023-04-24T10:11:41;8.80;;;6.47;;
5690;SDS011;2870;42.680;23.364;2023-04-24T10:14:12;12.30;;;6.43;;
5690;SDS011;2870;42.680;23.364;2023-04-24T10:16:40;17.80;;;7.17;;
5690;SDS011;2870;42.680;23.364;2023-04-24T10:19:07;9.63;;;5.97;;
5690;SDS011;2870;42.680;23.364;2023-04-24T10:21:34;14.10;;;6.27;;
5690;SDS011;2870;42.680;23.364;2023-04-24T10:24:03;10.70;;;6.30;;
5690;SDS011;2870;42.680;23.364;2023-04-24T10:26:32;11.03;;;5.83;;
5690;SDS011;2870;42.680;23.364;2023-04-24T10:29:00;15.70;;;5.93;;
5690;SDS011;2870;42.680;23.364;2023-04-24T10:31:31;20.33;;;5.80;;
5690;SDS011;2870;42.680;23.364;2023-04-24T10:33:58;13.43;;;6.10;;
5690;SDS011;2870;42.680;23.364;2023-04-24T10:36:27;14.40;;;5.63;;
5690;SDS011;2870;42.680;23.364;2023-04-24T10:38:58;15.73;;;6.60;;
5690;SDS011;2870;42.680;23.364;2023-04-24T10:41:27;12.37;;;6.13;;
5690;SDS011;2870;42.680;23.364;2023-04-24T10:44:05;13.70;;;6.57;;
5690;SDS011;2870;42.680;23.364;2023-04-24T10:46:34;13.27;;;6.40;;
5690;SDS011;2870;42.680;23.364;2023-04-24T10:49:03;10.97;;;7.40;;
5690;SDS011;2870;42.680;23.364;2023-04-24T10:51:45;11.10;;;7.00;;
5690;SDS011;2870;42.680;23.364;2023-04-24T10:54:23;10.97;;;7.10;;
5690;SDS011;2870;42.680;23.364;2023-04-24T10:56:51;8.93;;;5.83;;
5690;SDS011;2870;42.680;23.364;2023-04-24T10:59:25;12.63;;;7.20;;
5690;SDS011;2870;42.680;23.364;2023-04-24T11:01:54;12.43;;;8.20;;
5690;SDS011;2870;42.680;23.364;2023-04-24T11:04:31;13.73;;;7.07;;
5690;SDS011;2870;42.680;23.364;2023-04-24T11:07:00;11.70;;;6.83;;
5690;SDS011;2870;42.680;23.364;2023-04-24T11:09:30;14.30;;;6.90;;
5690;SDS011;2870;42.680;23.364;2023-04-24T11:12:04;12.40;;;7.10;;
5690;SDS011;2870;42.680;23.364;2023-04-24T11:17:36;15.90;;;7.00;;
5690;SDS011;2870;42.680;23.364;2023-04-24T11:20:06;15.43;;;7.23;;
5690;SDS011;2870;42.680;23.364;2023-04-24T11:22:34;14.17;;;7.13;;
5690;SDS011;2870;42.680;23.364;2023-04-24T11:25:02;13.37;;;7.10;;
5690;SDS011;2870;42.680;23.364;2023-04-24T11:27:30;16.20;;;7.07;;
5690;SDS011;2870;42.680;23.364;2023-04-24T11:29:59;12.07;;;6.70;;
5690;SDS011;2870;42.680;23.364;2023-04-24T11:32:29;11.83;;;7.17;;
5690;SDS011;2870;42.680;23.364;2023-04-24T11:35:01;40.17;;;8.07;;
5690;SDS011;2870;42.680;23.364;2023-04-24T11:37:33;17.10;;;7.20;;
5690;SDS011;2870;42.680;23.364;2023-04-24T11:40:01;14.60;;;8.33;;
5690;SDS011;2870;42.680;23.364;2023-04-24T11:42:29;18.67;;;8.30;;
5690;SDS011;2870;42.680;23.364;2023-04-24T11:45:00;13.40;;;7.30;;
5690;SDS011;2870;42.680;23.364;2023-04-24T11:47:28;11.30;;;7.20;;
5690;SDS011;2870;42.680;23.364;2023-04-24T11:49:56;10.80;;;5.90;;
5690;SDS011;2870;42.680;23.364;2023-04-24T11:52:24;9.03;;;5.53;;
5690;SDS011;2870;42.680;23.364;2023-04-24T11:54:51;11.10;;;6.93;;
5690;SDS011;2870;42.680;23.364;2023-04-24T11:57:19;13.97;;;7.23;;
5690;SDS011;2870;42.680;23.364;2023-04-24T11:59:46;11.40;;;6.60;;
5690;SDS011;2870;42.680;23.364;2023-04-24T12:02:22;9.50;;;6.23;;
5690;SDS011;2870;42.680;23.364;2023-04-24T12:04:49;8.97;;;6.90;;
5690;SDS011;2870;42.680;23.364;2023-04-24T12:07:16;9.43;;;6.20;;
5690;SDS011;2870;42.680;23.364;2023-04-24T12:09:45;10.40;;;6.30;;
5690;SDS011;2870;42.680;23.364;2023-04-24T12:12:13;9.30;;;6.03;;
5690;SDS011;2870;42.680;23.364;2023-04-24T12:14:42;9.73;;;6.40;;
5690;SDS011;2870;42.680;23.364;2023-04-24T12:17:23;11.13;;;6.67;;
5690;SDS011;2870;42.680;23.364;2023-04-24T12:19:51;11.00;;;6.67;;
5690;SDS011;2870;42.680;23.364;2023-04-24T12:22:18;9.93;;;7.00;;
5690;SDS011;2870;42.680;23.364;2023-04-24T12:25:00;9.53;;;6.13;;
5690;SDS011;2870;42.680;23.364;2023-04-24T12:27:30;16.13;;;7.03;;
5690;SDS011;2870;42.680;23.364;2023-04-24T12:29:59;9.90;;;6.90;;
5690;SDS011;2870;42.680;23.364;2023-04-24T12:32:27;8.40;;;6.00;;
5690;SDS011;2870;42.680;23.364;2023-04-24T12:34:55;9.93;;;5.13;;
5690;SDS011;2870;42.680;23.364;2023-04-24T12:37:22;8.83;;;5.47;;
5690;SDS011;2870;42.680;23.364;2023-04-24T12:40:02;7.27;;;5.00;;
5690;SDS011;2870;42.680;23.364;2023-04-24T12:42:31;9.33;;;6.03;;
5690;SDS011;2870;42.680;23.364;2023-04-24T12:44:59;8.00;;;5.70;;
5690;SDS011;2870;42.680;23.364;2023-04-24T12:47:27;11.63;;;6.00;;
5690;SDS011;2870;42.680;23.364;2023-04-24T12:49:55;8.60;;;5.90;;
5690;SDS011;2870;42.680;23.364;2023-04-24T12:52:22;8.47;;;5.13;;
5690;SDS011;2870;42.680;23.364;2023-04-24T12:54:51;11.03;;;5.50;;
5690;SDS011;2870;42.680;23.364;2023-04-24T12:57:21;10.53;;;5.77;;
5690;SDS011;2870;42.680;23.364;2023-04-24T12:59:48;7.83;;;5.87;;
5690;SDS011;2870;42.680;23.364;2023-04-24T13:02:14;10.33;;;6.20;;
5690;SDS011;2870;42.680;23.364;2023-04-24T13:04:43;10.03;;;6.17;;
5690;SDS011;2870;42.680;23.364;2023-04-24T13:07:11;9.90;;;6.00;;
5690;SDS011;2870;42.680;23.364;2023-04-24T13:09:39;10.97;;;6.73;;
5690;SDS011;2870;42.680;23.364;2023-04-24T13:12:06;10.70;;;6.10;;
5690;SDS011;2870;42.680;23.364;2023-04-24T13:14:35;8.30;;;5.73;;
5690;SDS011;2870;42.680;23.364;2023-04-24T13:17:02;9.97;;;6.47;;
5690;SDS011;2870;42.680;23.364;2023-04-24T13:19:29;9.63;;;6.50;;
5690;SDS011;2870;42.680;23.364;2023-04-24T13:22:02;10.40;;;6.50;;
5690;SDS011;2870;42.680;23.364;2023-04-24T13:24:29;10.33;;;6.20;;
5690;SDS011;2870;42.680;23.364;2023-04-24T13:26:56;9.37;;;6.53;;
5690;SDS011;2870;42.680;23.364;2023-04-24T13:29:23;8.53;;;6.23;;
5690;SDS011;2870;42.680;23.364;2023-04-24T13:31:52;13.33;;;7.00;;
5690;SDS011;2870;42.680;23.364;2023-04-24T13:34:20;7.97;;;5.80;;
5690;SDS011;2870;42.680;23.364;2023-04-24T13:36:47;10.00;;;7.03;;
5690;SDS011;2870;42.680;23.364;2023-04-24T13:39:14;8.70;;;6.40;;
5690;SDS011;2870;42.680;23.364;2023-04-24T13:41:42;8.03;;;6.03;;
5690;SDS011;2870;42.680;23.364;2023-04-24T13:44:09;8.37;;;6.60;;
5690;SDS011;2870;42.680;23.364;2023-04-24T13:46:35;9.37;;;6.83;;
5690;SDS011;2870;42.680;23.364;2023-04-24T13:49:04;10.37;;;7.50;;
5690;SDS011;2870;42.680;23.364;2023-04-24T13:51:30;9.50;;;6.77;;
5690;SDS011;2870;42.680;23.364;2023-04-24T13:53:57;9.23;;;6.40;;
5690;SDS011;2870;42.680;23.364;2023-04-24T13:56:24;11.30;;;6.60;;
5690;SDS011;2870;42.680;23.364;2023-04-24T13:58:52;9.70;;;6.93;;
5690;SDS011;2870;42.680;23.364;2023-04-24T14:01:20;14.30;;;7.20;;
5690;SDS011;2870;42.680;23.364;2023-04-24T14:03:49;12.77;;;7.27;;
5690;SDS011;2870;42.680;23.364;2023-04-24T14:06:17;10.93;;;7.60;;
5690;SDS011;2870;42.680;23.364;2023-04-24T14:08:44;10.10;;;6.40;;
5690;SDS011;2870;42.680;23.364;2023-04-24T14:11:11;10.07;;;5.93;;
5690;SDS011;2870;42.680;23.364;2023-04-24T14:13:39;9.43;;;6.00;;
5690;SDS011;2870;42.680;23.364;2023-04-24T14:16:07;12.80;;;7.20;;
5690;SDS011;2870;42.680;23.364;2023-04-24T14:18:35;14.47;;;6.23;;
5690;SDS011;2870;42.680;23.364;2023-04-24T14:21:01;8.03;;;6.10;;
5690;SDS011;2870;42.680;23.364;2023-04-24T14:23:30;10.07;;;6.40;;
5690;SDS011;2870;42.680;23.364;2023-04-24T14:25:56;10.33;;;5.80;;
5690;SDS011;2870;42.680;23.364;2023-04-24T14:28:24;9.17;;;5.33;;
5690;SDS011;2870;42.680;23.364;2023-04-24T14:30:51;8.50;;;5.60;;
5690;SDS011;2870;42.680;23.364;2023-04-24T14:33:18;10.33;;;6.30;;
5690;SDS011;2870;42.680;23.364;2023-04-24T14:35:45;12.77;;;7.20;;
5690;SDS011;2870;42.680;23.364;2023-04-24T14:38:12;8.17;;;5.80;;
5690;SDS011;2870;42.680;23.364;2023-04-24T14:40:41;9.77;;;5.63;;
5690;SDS011;2870;42.680;23.364;2023-04-24T14:43:08;9.10;;;6.30;;
5690;SDS011;2870;42.680;23.364;2023-04-24T14:45:35;11.83;;;6.50;;
5690;SDS011;2870;42.680;23.364;2023-04-24T14:48:03;8.27;;;5.60;;
5690;SDS011;2870;42.680;23.364;2023-04-24T14:50:30;17.83;;;5.73;;
5690;SDS011;2870;42.680;23.364;2023-04-24T14:52:56;7.60;;;5.77;;
5690;SDS011;2870;42.680;23.364;2023-04-24T14:55:23;8.87;;;5.77;;
5690;SDS011;2870;42.680;23.364;2023-04-24T14:57:53;11.70;;;5.90;;